sensor_id;sensor_type;location;lat;lon;timestamp;temperature;humidity
26326;DHT22;14032;52.510;7.342;2023-05-10T00:01:54;13.70;99.90
26326;DHT22;14032;52.510;7.342;2023-05-10T00:04:19;13.70;99.90
26326;DHT22;14032;52.510;7.342;2023-05-10T00:06:45;13.60;99.90
26326;DHT22;14032;52.510;7.342;2023-05-10T00:09:11;13.60;99.90
26326;DHT22;14032;52.510;7.342;2023-05-10T00:11:36;13.60;99.90
26326;DHT22;14032;52.510;7.342;2023-05-10T00:14:02;13.60;99.90
26326;DHT22;14032;52.510;7.342;2023-05-10T00:16:27;13.60;99.90
26326;DHT22;14032;52.510;7.342;2023-05-10T00:18:53;13.60;99.90
26326;DHT22;14032;52.510;7.342;2023-05-10T00:21:19;13.60;99.90
26326;DHT22;14032;52.510;7.342;2023-05-10T00:23:45;13.60;99.90
26326;DHT22;14032;52.510;7.342;2023-05-10T00:26:10;13.60;99.90
26326;DHT22;14032;52.510;7.342;2023-05-10T00:28:36;13.60;99.90
26326;DHT22;14032;52.510;7.342;2023-05-10T00:31:02;13.60;99.90
26326;DHT22;14032;52.510;7.342;2023-05-10T00:33:27;13.60;99.90
26326;DHT22;14032;52.510;7.342;2023-05-10T00:35:53;13.50;99.90
26326;DHT22;14032;52.510;7.342;2023-05-10T00:38:18;13.60;99.90
26326;DHT22;14032;52.510;7.342;2023-05-10T00:40:44;13.60;99.90
26326;DHT22;14032;52.510;7.342;2023-05-10T00:43:10;13.50;99.90
26326;DHT22;14032;52.510;7.342;2023-05-10T00:45:35;13.60;99.90
26326;DHT22;14032;52.510;7.342;2023-05-10T00:48:02;13.60;99.90
26326;DHT22;14032;52.510;7.342;2023-05-10T00:50:29;13.50;99.90
26326;DHT22;14032;52.510;7.342;2023-05-10T00:52:56;13.60;99.90
26326;DHT22;14032;52.510;7.342;2023-05-10T00:55:22;13.60;99.90
26326;DHT22;14032;52.510;7.342;2023-05-10T00:57:48;13.50;99.90
26326;DHT22;14032;52.510;7.342;2023-05-10T01:00:13;13.60;99.90
26326;DHT22;14032;52.510;7.342;2023-05-10T01:02:46;13.50;99.90
26326;DHT22;14032;52.510;7.342;2023-05-10T01:05:12;13.50;99.90
26326;DHT22;14032;52.510;7.342;2023-05-10T01:07:39;13.50;99.90
26326;DHT22;14032;52.510;7.342;2023-05-10T01:10:08;13.50;99.90
26326;DHT22;14032;52.510;7.342;2023-05-10T01:12:37;13.40;99.90
26326;DHT22;14032;52.510;7.342;2023-05-10T01:15:05;13.30;99.90
26326;DHT22;14032;52.510;7.342;2023-05-10T01:17:31;13.20;99.90
26326;DHT22;14032;52.510;7.342;2023-05-10T01:19:57;13.10;99.90
26326;DHT22;14032;52.510;7.342;2023-05-10T01:22:50;13.10;99.90
26326;DHT22;14032;52.510;7.342;2023-05-10T01:28:09;13.00;99.90
26326;DHT22;14032;52.510;7.342;2023-05-10T01:36:32;12.90;99.90
26326;DHT22;14032;52.510;7.342;2023-05-10T01:39:28;12.80;99.90
26326;DHT22;14032;52.510;7.342;2023-05-10T01:42:07;12.80;99.90
26326;DHT22;14032;52.510;7.342;2023-05-10T01:47:35;12.80;99.90
26326;DHT22;14032;52.510;7.342;2023-05-10T01:50:04;12.80;99.90
26326;DHT22;14032;52.510;7.342;2023-05-10T01:52:33;12.80;99.90
26326;DHT22;14032;52.510;7.342;2023-05-10T01:55:04;12.80;99.90
26326;DHT22;14032;52.510;7.342;2023-05-10T01:57:35;12.80;99.90
26326;DHT22;14032;52.510;7.342;2023-05-10T02:00:03;12.70;99.90
26326;DHT22;14032;52.510;7.342;2023-05-10T02:02:31;12.70;99.90
26326;DHT22;14032;52.510;7.342;2023-05-10T02:04:59;12.70;99.90
26326;DHT22;14032;52.510;7.342;2023-05-10T02:07:27;12.70;99.90
26326;DHT22;14032;52.510;7.342;2023-05-10T02:09:54;12.70;99.90
26326;DHT22;14032;52.510;7.342;2023-05-10T02:12:21;12.70;99.90
26326;DHT22;14032;52.510;7.342;2023-05-10T02:14:47;12.70;99.90
26326;DHT22;14032;52.510;7.342;2023-05-10T02:17:14;12.70;99.90
26326;DHT22;14032;52.510;7.342;2023-05-10T02:19:41;12.60;99.90
26326;DHT22;14032;52.510;7.342;2023-05-10T02:22:08;12.60;99.90
26326;DHT22;14032;52.510;7.342;2023-05-10T02:24:35;12.60;99.90
26326;DHT22;14032;52.510;7.342;2023-05-10T02:27:02;12.70;99.90
26326;DHT22;14032;52.510;7.342;2023-05-10T02:29:29;12.70;99.90
26326;DHT22;14032;52.510;7.342;2023-05-10T02:31:57;12.60;99.90
26326;DHT22;14032;52.510;7.342;2023-05-10T02:34:26;12.70;99.90
26326;DHT22;14032;52.510;7.342;2023-05-10T02:36:53;12.70;99.90
26326;DHT22;14032;52.510;7.342;2023-05-10T02:39:19;12.60;99.90
26326;DHT22;14032;52.510;7.342;2023-05-10T02:41:47;12.60;99.90
26326;DHT22;14032;52.510;7.342;2023-05-10T02:44:15;12.60;99.90
26326;DHT22;14032;52.510;7.342;2023-05-10T02:46:41;12.70;99.90
26326;DHT22;14032;52.510;7.342;2023-05-10T02:49:07;12.60;99.90
26326;DHT22;14032;52.510;7.342;2023-05-10T02:51:35;12.60;99.90
26326;DHT22;14032;52.510;7.342;2023-05-10T02:54:09;12.60;99.90
26326;DHT22;14032;52.510;7.342;2023-05-10T02:56:36;12.60;99.90
26326;DHT22;14032;52.510;7.342;2023-05-10T02:59:06;12.60;99.90
26326;DHT22;14032;52.510;7.342;2023-05-10T03:01:32;12.60;99.90
26326;DHT22;14032;52.510;7.342;2023-05-10T03:03:57;12.60;99.90
26326;DHT22;14032;52.510;7.342;2023-05-10T03:06:23;12.60;99.90
26326;DHT22;14032;52.510;7.342;2023-05-10T03:08:49;12.60;99.90
26326;DHT22;14032;52.510;7.342;2023-05-10T03:16:46;12.60;99.90
26326;DHT22;14032;52.510;7.342;2023-05-10T03:19:21;12.60;99.90
26326;DHT22;14032;52.510;7.342;2023-05-10T03:21:50;12.60;99.90
26326;DHT22;14032;52.510;7.342;2023-05-10T03:24:20;12.60;99.90
26326;DHT22;14032;52.510;7.342;2023-05-10T03:26:47;12.60;99.90
26326;DHT22;14032;52.510;7.342;2023-05-10T03:29:14;12.60;99.90
26326;DHT22;14032;52.510;7.342;2023-05-10T03:31:41;12.60;99.90
26326;DHT22;14032;52.510;7.342;2023-05-10T03:34:06;12.60;99.90
26326;DHT22;14032;52.510;7.342;2023-05-10T03:36:32;12.60;99.90
26326;DHT22;14032;52.510;7.342;2023-05-10T03:38:58;12.60;99.90
26326;DHT22;14032;52.510;7.342;2023-05-10T03:41:24;12.60;99.90
26326;DHT22;14032;52.510;7.342;2023-05-10T03:43:51;12.60;99.90
26326;DHT22;14032;52.510;7.342;2023-05-10T03:46:17;12.60;99.90
26326;DHT22;14032;52.510;7.342;2023-05-10T03:48:42;12.60;99.90
26326;DHT22;14032;52.510;7.342;2023-05-10T03:51:08;12.50;99.90
26326;DHT22;14032;52.510;7.342;2023-05-10T03:53:33;12.60;99.90
26326;DHT22;14032;52.510;7.342;2023-05-10T03:55:59;12.60;99.90
26326;DHT22;14032;52.510;7.342;2023-05-10T03:58:25;12.60;99.90
26326;DHT22;14032;52.510;7.342;2023-05-10T04:00:51;12.60;99.90
26326;DHT22;14032;52.510;7.342;2023-05-10T04:03:17;12.60;99.90
26326;DHT22;14032;52.510;7.342;2023-05-10T04:05:43;12.50;99.90
26326;DHT22;14032;52.510;7.342;2023-05-10T04:08:08;12.60;99.90
26326;DHT22;14032;52.510;7.342;2023-05-10T04:10:34;12.60;99.90
26326;DHT22;14032;52.510;7.342;2023-05-10T04:12:59;12.60;99.90
26326;DHT22;14032;52.510;7.342;2023-05-10T04:15:25;12.50;99.90
26326;DHT22;14032;52.510;7.342;2023-05-10T04:17:50;12.50;99.90
26326;DHT22;14032;52.510;7.342;2023-05-10T04:20:16;12.50;99.90
26326;DHT22;14032;52.510;7.342;2023-05-10T04:22:42;12.60;99.90
26326;DHT22;14032;52.510;7.342;2023-05-10T04:25:08;12.50;99.90
26326;DHT22;14032;52.510;7.342;2023-05-10T04:27:34;12.60;99.90
26326;DHT22;14032;52.510;7.342;2023-05-10T04:29:59;12.50;99.90
26326;DHT22;14032;52.510;7.342;2023-05-10T04:32:25;12.50;99.90
26326;DHT22;14032;52.510;7.342;2023-05-10T04:34:50;12.50;99.90
26326;DHT22;14032;52.510;7.342;2023-05-10T04:37:17;12.50;99.90
26326;DHT22;14032;52.510;7.342;2023-05-10T04:39:43;12.50;99.90
26326;DHT22;14032;52.510;7.342;2023-05-10T04:42:09;12.50;99.90
26326;DHT22;14032;52.510;7.342;2023-05-10T04:44:34;12.50;99.90
26326;DHT22;14032;52.510;7.342;2023-05-10T04:47:00;12.50;99.90
26326;DHT22;14032;52.510;7.342;2023-05-10T04:49:27;12.50;99.90
26326;DHT22;14032;52.510;7.342;2023-05-10T04:51:53;12.50;99.90
26326;DHT22;14032;52.510;7.342;2023-05-10T04:54:19;12.50;99.90
26326;DHT22;14032;52.510;7.342;2023-05-10T04:56:44;12.60;99.90
26326;DHT22;14032;52.510;7.342;2023-05-10T04:59:10;12.50;99.90
26326;DHT22;14032;52.510;7.342;2023-05-10T05:01:36;12.60;99.90
26326;DHT22;14032;52.510;7.342;2023-05-10T05:04:01;12.60;99.90
26326;DHT22;14032;52.510;7.342;2023-05-10T05:06:27;12.60;99.90
26326;DHT22;14032;52.510;7.342;2023-05-10T05:08:53;12.60;99.90
26326;DHT22;14032;52.510;7.342;2023-05-10T05:11:18;12.60;99.90
26326;DHT22;14032;52.510;7.342;2023-05-10T05:13:44;12.50;99.90
26326;DHT22;14032;52.510;7.342;2023-05-10T05:16:10;12.50;99.90
26326;DHT22;14032;52.510;7.342;2023-05-10T05:18:38;12.50;99.90
26326;DHT22;14032;52.510;7.342;2023-05-10T05:21:17;12.50;99.90
26326;DHT22;14032;52.510;7.342;2023-05-10T05:23:43;12.60;99.90
26326;DHT22;14032;52.510;7.342;2023-05-10T05:26:09;12.50;99.90
26326;DHT22;14032;52.510;7.342;2023-05-10T05:28:37;12.60;99.90
26326;DHT22;14032;52.510;7.342;2023-05-10T05:31:04;12.50;99.90
26326;DHT22;14032;52.510;7.342;2023-05-10T05:33:30;12.60;99.90
26326;DHT22;14032;52.510;7.342;2023-05-10T05:35:56;12.60;99.90
26326;DHT22;14032;52.510;7.342;2023-05-10T05:38:22;12.60;99.90
26326;DHT22;14032;52.510;7.342;2023-05-10T05:40:47;12.60;99.90
26326;DHT22;14032;52.510;7.342;2023-05-10T05:43:13;12.60;99.90
26326;DHT22;14032;52.510;7.342;2023-05-10T05:45:38;12.60;99.90
26326;DHT22;14032;52.510;7.342;2023-05-10T05:48:04;12.60;99.90
26326;DHT22;14032;52.510;7.342;2023-05-10T05:50:30;12.60;99.90
26326;DHT22;14032;52.510;7.342;2023-05-10T05:52:55;12.70;99.90
26326;DHT22;14032;52.510;7.342;2023-05-10T05:55:22;12.70;99.90
26326;DHT22;14032;52.510;7.342;2023-05-10T05:57:49;12.70;99.90
26326;DHT22;14032;52.510;7.342;2023-05-10T06:00:15;12.70;99.90
26326;DHT22;14032;52.510;7.342;2023-05-10T06:02:44;12.70;99.90
26326;DHT22;14032;52.510;7.342;2023-05-10T06:05:09;12.80;99.90
26326;DHT22;14032;52.510;7.342;2023-05-10T06:07:35;12.80;99.90
26326;DHT22;14032;52.510;7.342;2023-05-10T06:10:04;12.80;99.90
26326;DHT22;14032;52.510;7.342;2023-05-10T06:12:32;12.80;99.90
26326;DHT22;14032;52.510;7.342;2023-05-10T06:14:58;12.80;99.90
26326;DHT22;14032;52.510;7.342;2023-05-10T06:17:27;12.80;99.90
26326;DHT22;14032;52.510;7.342;2023-05-10T06:19:53;12.80;99.90
26326;DHT22;14032;52.510;7.342;2023-05-10T06:22:18;12.80;99.90
26326;DHT22;14032;52.510;7.342;2023-05-10T06:24:44;12.90;99.90
26326;DHT22;14032;52.510;7.342;2023-05-10T06:27:09;12.90;99.90
26326;DHT22;14032;52.510;7.342;2023-05-10T06:29:35;12.90;99.90
26326;DHT22;14032;52.510;7.342;2023-05-10T06:32:00;12.90;99.90
26326;DHT22;14032;52.510;7.342;2023-05-10T06:34:26;12.90;99.90
26326;DHT22;14032;52.510;7.342;2023-05-10T06:36:52;12.90;99.90
26326;DHT22;14032;52.510;7.342;2023-05-10T06:39:18;12.90;99.90
26326;DHT22;14032;52.510;7.342;2023-05-10T06:41:46;12.90;99.90
26326;DHT22;14032;52.510;7.342;2023-05-10T06:44:12;12.90;99.90
26326;DHT22;14032;52.510;7.342;2023-05-10T06:46:41;12.90;99.90
26326;DHT22;14032;52.510;7.342;2023-05-10T06:49:08;12.90;99.90
26326;DHT22;14032;52.510;7.342;2023-05-10T06:51:33;13.00;99.90
26326;DHT22;14032;52.510;7.342;2023-05-10T06:53:59;12.90;99.90
26326;DHT22;14032;52.510;7.342;2023-05-10T06:56:25;13.00;99.90
26326;DHT22;14032;52.510;7.342;2023-05-10T06:58:51;13.00;99.90
26326;DHT22;14032;52.510;7.342;2023-05-10T07:01:16;13.00;99.90
26326;DHT22;14032;52.510;7.342;2023-05-10T07:03:42;13.00;99.90
26326;DHT22;14032;52.510;7.342;2023-05-10T07:06:08;13.00;99.90
26326;DHT22;14032;52.510;7.342;2023-05-10T07:08:34;13.00;99.90
26326;DHT22;14032;52.510;7.342;2023-05-10T07:11:01;13.00;99.90
26326;DHT22;14032;52.510;7.342;2023-05-10T07:13:27;13.00;99.90
26326;DHT22;14032;52.510;7.342;2023-05-10T07:15:52;12.90;99.90
26326;DHT22;14032;52.510;7.342;2023-05-10T07:18:18;12.90;99.90
26326;DHT22;14032;52.510;7.342;2023-05-10T07:20:43;12.90;99.90
26326;DHT22;14032;52.510;7.342;2023-05-10T07:23:09;12.90;99.90
26326;DHT22;14032;52.510;7.342;2023-05-10T07:25:34;12.90;99.90
26326;DHT22;14032;52.510;7.342;2023-05-10T07:28:00;12.90;99.90
26326;DHT22;14032;52.510;7.342;2023-05-10T07:30:25;12.90;99.90
26326;DHT22;14032;52.510;7.342;2023-05-10T07:32:51;13.00;99.90
26326;DHT22;14032;52.510;7.342;2023-05-10T07:35:17;13.00;99.90
26326;DHT22;14032;52.510;7.342;2023-05-10T07:37:42;13.10;99.90
26326;DHT22;14032;52.510;7.342;2023-05-10T07:40:08;13.10;99.90
26326;DHT22;14032;52.510;7.342;2023-05-10T07:42:34;13.20;99.90
26326;DHT22;14032;52.510;7.342;2023-05-10T07:44:59;13.20;99.90
26326;DHT22;14032;52.510;7.342;2023-05-10T07:47:25;13.20;99.90
26326;DHT22;14032;52.510;7.342;2023-05-10T07:49:51;13.30;99.90
26326;DHT22;14032;52.510;7.342;2023-05-10T07:52:16;13.30;99.90
26326;DHT22;14032;52.510;7.342;2023-05-10T07:54:42;13.30;99.90
26326;DHT22;14032;52.510;7.342;2023-05-10T07:57:08;13.30;99.90
26326;DHT22;14032;52.510;7.342;2023-05-10T07:59:33;13.30;99.90
26326;DHT22;14032;52.510;7.342;2023-05-10T08:01:59;13.30;99.90
26326;DHT22;14032;52.510;7.342;2023-05-10T08:04:24;13.40;99.90
26326;DHT22;14032;52.510;7.342;2023-05-10T08:06:50;13.40;99.90
26326;DHT22;14032;52.510;7.342;2023-05-10T08:09:16;13.40;99.90
26326;DHT22;14032;52.510;7.342;2023-05-10T08:11:41;13.40;99.90
26326;DHT22;14032;52.510;7.342;2023-05-10T08:14:07;13.30;99.90
26326;DHT22;14032;52.510;7.342;2023-05-10T08:16:32;13.30;99.90
26326;DHT22;14032;52.510;7.342;2023-05-10T08:18:58;13.40;99.90
26326;DHT22;14032;52.510;7.342;2023-05-10T08:21:24;13.40;99.90
26326;DHT22;14032;52.510;7.342;2023-05-10T08:23:49;13.40;99.90
26326;DHT22;14032;52.510;7.342;2023-05-10T08:26:15;13.40;99.90
26326;DHT22;14032;52.510;7.342;2023-05-10T08:28:40;13.40;99.90
26326;DHT22;14032;52.510;7.342;2023-05-10T08:31:06;13.50;99.90
26326;DHT22;14032;52.510;7.342;2023-05-10T08:33:31;13.60;99.90
26326;DHT22;14032;52.510;7.342;2023-05-10T08:35:57;13.70;99.90
26326;DHT22;14032;52.510;7.342;2023-05-10T08:38:23;13.70;99.90
26326;DHT22;14032;52.510;7.342;2023-05-10T08:40:49;13.90;99.90
26326;DHT22;14032;52.510;7.342;2023-05-10T08:43:16;14.00;99.90
26326;DHT22;14032;52.510;7.342;2023-05-10T08:45:43;14.00;99.90
26326;DHT22;14032;52.510;7.342;2023-05-10T08:48:11;14.00;99.90
26326;DHT22;14032;52.510;7.342;2023-05-10T08:50:38;14.00;99.90
26326;DHT22;14032;52.510;7.342;2023-05-10T08:53:06;14.10;99.90
26326;DHT22;14032;52.510;7.342;2023-05-10T08:55:34;14.10;99.90
26326;DHT22;14032;52.510;7.342;2023-05-10T08:58:02;14.20;99.90
26326;DHT22;14032;52.510;7.342;2023-05-10T09:00:28;14.20;99.90
26326;DHT22;14032;52.510;7.342;2023-05-10T09:02:55;14.30;99.90
26326;DHT22;14032;52.510;7.342;2023-05-10T09:05:21;14.20;99.90
26326;DHT22;14032;52.510;7.342;2023-05-10T09:07:46;14.20;99.90
26326;DHT22;14032;52.510;7.342;2023-05-10T09:10:13;14.20;99.90
26326;DHT22;14032;52.510;7.342;2023-05-10T09:12:41;14.10;99.90
26326;DHT22;14032;52.510;7.342;2023-05-10T09:15:07;14.10;99.90
26326;DHT22;14032;52.510;7.342;2023-05-10T09:17:34;14.10;99.90
26326;DHT22;14032;52.510;7.342;2023-05-10T09:20:01;14.10;99.90
26326;DHT22;14032;52.510;7.342;2023-05-10T09:22:28;14.10;99.90
26326;DHT22;14032;52.510;7.342;2023-05-10T09:25:12;14.10;99.90
26326;DHT22;14032;52.510;7.342;2023-05-10T09:27:40;14.20;99.90
26326;DHT22;14032;52.510;7.342;2023-05-10T09:30:07;14.20;99.90
26326;DHT22;14032;52.510;7.342;2023-05-10T09:32:44;14.20;99.90
26326;DHT22;14032;52.510;7.342;2023-05-10T09:35:36;14.20;99.90
26326;DHT22;14032;52.510;7.342;2023-05-10T09:38:04;14.20;99.90
26326;DHT22;14032;52.510;7.342;2023-05-10T09:40:30;14.20;99.90
26326;DHT22;14032;52.510;7.342;2023-05-10T09:45:24;14.20;99.90
26326;DHT22;14032;52.510;7.342;2023-05-10T09:47:50;14.30;99.90
26326;DHT22;14032;52.510;7.342;2023-05-10T09:50:16;14.30;99.90
26326;DHT22;14032;52.510;7.342;2023-05-10T09:52:55;14.30;99.90
26326;DHT22;14032;52.510;7.342;2023-05-10T09:55:23;14.30;99.90
26326;DHT22;14032;52.510;7.342;2023-05-10T09:57:50;14.40;99.90
26326;DHT22;14032;52.510;7.342;2023-05-10T10:00:23;14.30;99.90
26326;DHT22;14032;52.510;7.342;2023-05-10T10:02:57;14.30;99.90
26326;DHT22;14032;52.510;7.342;2023-05-10T10:05:34;14.40;99.90
26326;DHT22;14032;52.510;7.342;2023-05-10T10:08:04;14.40;99.90
26326;DHT22;14032;52.510;7.342;2023-05-10T10:10:31;14.50;99.90
26326;DHT22;14032;52.510;7.342;2023-05-10T10:12:57;14.70;99.90
26326;DHT22;14032;52.510;7.342;2023-05-10T10:15:24;14.80;99.90
26326;DHT22;14032;52.510;7.342;2023-05-10T10:17:51;15.00;99.90
26326;DHT22;14032;52.510;7.342;2023-05-10T10:20:18;15.10;99.90
26326;DHT22;14032;52.510;7.342;2023-05-10T10:22:44;15.10;99.90
26326;DHT22;14032;52.510;7.342;2023-05-10T10:25:15;15.20;99.90
26326;DHT22;14032;52.510;7.342;2023-05-10T10:35:28;15.30;99.90
26326;DHT22;14032;52.510;7.342;2023-05-10T10:37:54;15.20;99.90
26326;DHT22;14032;52.510;7.342;2023-05-10T10:40:24;15.10;99.90
26326;DHT22;14032;52.510;7.342;2023-05-10T10:42:50;15.00;99.90
26326;DHT22;14032;52.510;7.342;2023-05-10T10:45:16;15.00;99.90
26326;DHT22;14032;52.510;7.342;2023-05-10T10:47:42;14.90;99.90
26326;DHT22;14032;52.510;7.342;2023-05-10T10:50:08;14.90;99.90
26326;DHT22;14032;52.510;7.342;2023-05-10T10:52:43;14.80;99.90
26326;DHT22;14032;52.510;7.342;2023-05-10T10:55:19;14.70;99.90
26326;DHT22;14032;52.510;7.342;2023-05-10T10:57:55;14.70;99.90
26326;DHT22;14032;52.510;7.342;2023-05-10T11:02:53;14.60;99.90
26326;DHT22;14032;52.510;7.342;2023-05-10T11:08:30;14.50;99.90
26326;DHT22;14032;52.510;7.342;2023-05-10T11:13:31;14.60;99.90
26326;DHT22;14032;52.510;7.342;2023-05-10T11:15:58;14.50;99.90
26326;DHT22;14032;52.510;7.342;2023-05-10T11:18:26;14.50;99.90
26326;DHT22;14032;52.510;7.342;2023-05-10T11:20:59;14.60;99.90
26326;DHT22;14032;52.510;7.342;2023-05-10T11:26:11;14.40;99.90
26326;DHT22;14032;52.510;7.342;2023-05-10T11:28:44;14.40;99.90
26326;DHT22;14032;52.510;7.342;2023-05-10T11:31:10;14.40;99.90
26326;DHT22;14032;52.510;7.342;2023-05-10T11:33:49;14.40;99.90
26326;DHT22;14032;52.510;7.342;2023-05-10T11:36:16;14.40;99.90
26326;DHT22;14032;52.510;7.342;2023-05-10T11:38:42;14.40;99.90
26326;DHT22;14032;52.510;7.342;2023-05-10T11:41:09;14.50;99.90
26326;DHT22;14032;52.510;7.342;2023-05-10T11:43:35;14.60;99.90
26326;DHT22;14032;52.510;7.342;2023-05-10T11:46:06;14.60;99.90
26326;DHT22;14032;52.510;7.342;2023-05-10T11:48:32;14.80;99.90
26326;DHT22;14032;52.510;7.342;2023-05-10T11:50:58;15.00;99.90
26326;DHT22;14032;52.510;7.342;2023-05-10T11:53:27;15.00;99.90
26326;DHT22;14032;52.510;7.342;2023-05-10T11:55:53;15.10;99.90
26326;DHT22;14032;52.510;7.342;2023-05-10T11:58:19;15.20;99.90
26326;DHT22;14032;52.510;7.342;2023-05-10T12:00:46;15.20;99.90
26326;DHT22;14032;52.510;7.342;2023-05-10T12:03:12;15.20;99.90
26326;DHT22;14032;52.510;7.342;2023-05-10T12:05:38;15.20;99.90
26326;DHT22;14032;52.510;7.342;2023-05-10T12:08:15;15.10;99.90
26326;DHT22;14032;52.510;7.342;2023-05-10T12:10:41;15.20;99.90
26326;DHT22;14032;52.510;7.342;2023-05-10T12:13:14;15.20;99.90
26326;DHT22;14032;52.510;7.342;2023-05-10T12:15:40;15.20;99.90
26326;DHT22;14032;52.510;7.342;2023-05-10T12:18:11;15.20;99.90
26326;DHT22;14032;52.510;7.342;2023-05-10T12:20:38;15.30;99.90
26326;DHT22;14032;52.510;7.342;2023-05-10T12:23:04;15.40;99.90
26326;DHT22;14032;52.510;7.342;2023-05-10T12:25:33;15.40;99.90
26326;DHT22;14032;52.510;7.342;2023-05-10T12:28:00;15.40;99.90
26326;DHT22;14032;52.510;7.342;2023-05-10T12:30:31;15.50;99.90
26326;DHT22;14032;52.510;7.342;2023-05-10T12:33:11;15.60;99.90
26326;DHT22;14032;52.510;7.342;2023-05-10T12:38:38;15.70;99.90
26326;DHT22;14032;52.510;7.342;2023-05-10T12:41:12;15.80;99.90
26326;DHT22;14032;52.510;7.342;2023-05-10T12:43:39;15.90;99.90
26326;DHT22;14032;52.510;7.342;2023-05-10T12:46:12;16.00;99.90
26326;DHT22;14032;52.510;7.342;2023-05-10T12:48:39;16.10;99.90
26326;DHT22;14032;52.510;7.342;2023-05-10T12:51:05;16.10;99.90
26326;DHT22;14032;52.510;7.342;2023-05-10T12:53:38;16.20;99.90
26326;DHT22;14032;52.510;7.342;2023-05-10T12:56:04;16.20;99.90
26326;DHT22;14032;52.510;7.342;2023-05-10T12:58:29;16.30;99.90
26326;DHT22;14032;52.510;7.342;2023-05-10T13:00:55;16.30;99.90
26326;DHT22;14032;52.510;7.342;2023-05-10T13:03:22;16.30;99.90
26326;DHT22;14032;52.510;7.342;2023-05-10T13:05:47;16.30;99.90
26326;DHT22;14032;52.510;7.342;2023-05-10T13:08:13;16.20;99.90
26326;DHT22;14032;52.510;7.342;2023-05-10T13:10:39;16.20;99.90
26326;DHT22;14032;52.510;7.342;2023-05-10T13:13:04;16.10;99.90
26326;DHT22;14032;52.510;7.342;2023-05-10T13:15:30;16.10;99.90
26326;DHT22;14032;52.510;7.342;2023-05-10T13:17:56;16.10;99.90
26326;DHT22;14032;52.510;7.342;2023-05-10T13:20:22;16.00;99.90
26326;DHT22;14032;52.510;7.342;2023-05-10T13:22:47;16.00;99.90
26326;DHT22;14032;52.510;7.342;2023-05-10T13:25:13;16.00;99.90
26326;DHT22;14032;52.510;7.342;2023-05-10T13:27:39;16.00;99.90
26326;DHT22;14032;52.510;7.342;2023-05-10T13:30:07;16.00;99.90
26326;DHT22;14032;52.510;7.342;2023-05-10T13:32:34;16.00;99.90
26326;DHT22;14032;52.510;7.342;2023-05-10T13:34:59;16.00;99.90
26326;DHT22;14032;52.510;7.342;2023-05-10T13:37:25;16.00;99.90
26326;DHT22;14032;52.510;7.342;2023-05-10T13:39:51;16.00;99.90
26326;DHT22;14032;52.510;7.342;2023-05-10T13:42:17;16.00;99.90
26326;DHT22;14032;52.510;7.342;2023-05-10T13:44:42;16.00;99.90
26326;DHT22;14032;52.510;7.342;2023-05-10T13:47:08;16.00;99.90
26326;DHT22;14032;52.510;7.342;2023-05-10T13:49:34;16.00;99.90
26326;DHT22;14032;52.510;7.342;2023-05-10T13:52:00;16.00;99.90
26326;DHT22;14032;52.510;7.342;2023-05-10T13:54:32;16.00;99.90
26326;DHT22;14032;52.510;7.342;2023-05-10T13:56:58;16.10;99.90
26326;DHT22;14032;52.510;7.342;2023-05-10T13:59:24;16.10;99.90
26326;DHT22;14032;52.510;7.342;2023-05-10T14:01:49;16.20;99.90
26326;DHT22;14032;52.510;7.342;2023-05-10T14:04:15;16.20;99.90
26326;DHT22;14032;52.510;7.342;2023-05-10T14:06:41;16.10;99.90
26326;DHT22;14032;52.510;7.342;2023-05-10T14:09:06;16.10;99.90
26326;DHT22;14032;52.510;7.342;2023-05-10T14:11:32;16.10;99.90
26326;DHT22;14032;52.510;7.342;2023-05-10T14:13:57;16.10;99.90
26326;DHT22;14032;52.510;7.342;2023-05-10T14:16:23;16.10;99.90
26326;DHT22;14032;52.510;7.342;2023-05-10T14:18:48;16.10;99.90
26326;DHT22;14032;52.510;7.342;2023-05-10T14:21:14;16.20;99.90
26326;DHT22;14032;52.510;7.342;2023-05-10T14:23:40;16.30;99.90
26326;DHT22;14032;52.510;7.342;2023-05-10T14:26:06;16.30;99.90
26326;DHT22;14032;52.510;7.342;2023-05-10T14:28:32;16.30;99.90
26326;DHT22;14032;52.510;7.342;2023-05-10T14:30:57;16.40;99.90
26326;DHT22;14032;52.510;7.342;2023-05-10T14:33:24;16.30;99.90
26326;DHT22;14032;52.510;7.342;2023-05-10T14:35:50;16.30;99.90
26326;DHT22;14032;52.510;7.342;2023-05-10T14:38:16;16.30;99.90
26326;DHT22;14032;52.510;7.342;2023-05-10T14:40:41;16.30;99.90
26326;DHT22;14032;52.510;7.342;2023-05-10T14:43:08;16.30;99.90
26326;DHT22;14032;52.510;7.342;2023-05-10T14:45:34;16.30;99.90
26326;DHT22;14032;52.510;7.342;2023-05-10T14:48:00;16.20;99.90
26326;DHT22;14032;52.510;7.342;2023-05-10T14:50:26;16.20;99.90
26326;DHT22;14032;52.510;7.342;2023-05-10T14:52:52;16.20;99.90
26326;DHT22;14032;52.510;7.342;2023-05-10T14:55:17;16.10;99.90
26326;DHT22;14032;52.510;7.342;2023-05-10T14:57:43;16.10;99.90
26326;DHT22;14032;52.510;7.342;2023-05-10T15:00:10;16.10;99.90
26326;DHT22;14032;52.510;7.342;2023-05-10T15:02:35;16.10;99.90
26326;DHT22;14032;52.510;7.342;2023-05-10T15:05:01;16.10;99.90
26326;DHT22;14032;52.510;7.342;2023-05-10T15:07:27;16.00;99.90
26326;DHT22;14032;52.510;7.342;2023-05-10T15:09:53;16.00;99.90
26326;DHT22;14032;52.510;7.342;2023-05-10T15:12:19;16.00;99.90
26326;DHT22;14032;52.510;7.342;2023-05-10T15:14:45;16.00;99.90
26326;DHT22;14032;52.510;7.342;2023-05-10T15:17:11;15.90;99.90
26326;DHT22;14032;52.510;7.342;2023-05-10T15:19:36;15.90;99.90
26326;DHT22;14032;52.510;7.342;2023-05-10T15:22:03;15.90;99.90
26326;DHT22;14032;52.510;7.342;2023-05-10T15:24:29;15.80;99.90
26326;DHT22;14032;52.510;7.342;2023-05-10T15:26:55;15.80;99.90
26326;DHT22;14032;52.510;7.342;2023-05-10T15:29:20;15.80;99.90
26326;DHT22;14032;52.510;7.342;2023-05-10T15:31:50;15.80;99.90
26326;DHT22;14032;52.510;7.342;2023-05-10T15:34:17;15.80;99.90
26326;DHT22;14032;52.510;7.342;2023-05-10T15:36:43;15.80;99.90
26326;DHT22;14032;52.510;7.342;2023-05-10T15:39:10;15.80;99.90
26326;DHT22;14032;52.510;7.342;2023-05-10T15:41:36;15.80;99.90
26326;DHT22;14032;52.510;7.342;2023-05-10T15:44:01;15.80;99.90
26326;DHT22;14032;52.510;7.342;2023-05-10T15:46:28;15.90;99.90
26326;DHT22;14032;52.510;7.342;2023-05-10T15:48:53;15.80;99.90
26326;DHT22;14032;52.510;7.342;2023-05-10T15:51:19;15.80;99.90
26326;DHT22;14032;52.510;7.342;2023-05-10T15:53:45;15.80;99.90
26326;DHT22;14032;52.510;7.342;2023-05-10T15:56:11;15.80;99.90
26326;DHT22;14032;52.510;7.342;2023-05-10T15:58:38;15.80;99.90
26326;DHT22;14032;52.510;7.342;2023-05-10T16:01:04;15.80;99.90
26326;DHT22;14032;52.510;7.342;2023-05-10T16:03:33;15.70;99.90
26326;DHT22;14032;52.510;7.342;2023-05-10T16:05:59;15.70;99.90
26326;DHT22;14032;52.510;7.342;2023-05-10T16:08:25;15.70;99.90
26326;DHT22;14032;52.510;7.342;2023-05-10T16:10:51;15.70;99.90